Time;durP1;ratioP1;P1;durP2;ratioP2;P2;SDS_P1;SDS_P2;PMS_P1;PMS_P2;Temp;Humidity;BMP_temperature;BMP_pressure;BME280_temperature;BME280_humidity;BME280_pressure;Samples;Min_cycle;Max_cycle;Signal;HPM_P1;HPM_P2
2022/04/19 00:01:18;;;;;;;12.30;8.80;;;7.10;94.40;;;;;;5017699;28;20045;-54
2022/04/19 00:03:43;;;;;;;10.55;6.18;;;6.90;94.60;;;;;;5046696;28;20115;-53
2022/04/19 00:06:09;;;;;;;7.70;6.07;;;6.80;94.90;;;;;;5045743;28;20584;-56
2022/04/19 00:08:35;;;;;;;14.38;6.80;;;6.70;95.10;;;;;;5044253;28;20090;-52
2022/04/19 00:11:03;;;;;;;12.13;6.45;;;6.60;95.40;;;;;;5039690;28;20124;-55
2022/04/19 00:13:29;;;;;;;7.85;5.88;;;6.60;95.40;;;;;;5043361;28;20044;-52
2022/04/19 00:15:56;;;;;;;7.47;6.18;;;6.50;95.40;;;;;;5041395;28;20485;-53
2022/04/19 00:18:23;;;;;;;9.85;5.70;;;6.40;95.70;;;;;;5045474;28;20505;-54
2022/04/19 00:20:49;;;;;;;10.35;5.97;;;6.20;95.90;;;;;;5033331;28;20030;-54
2022/04/19 00:23:16;;;;;;;7.72;5.53;;;6.30;96.10;;;;;;5045324;28;20049;-54
2022/04/19 00:25:47;;;;;;;8.48;5.97;;;6.30;96.10;;;;;;5034778;28;20029;-52
2022/04/19 00:28:14;;;;;;;8.98;6.55;;;6.40;96.00;;;;;;5033239;28;20031;-52
2022/04/19 00:30:41;;;;;;;7.50;5.75;;;6.40;96.10;;;;;;5036870;28;20049;-55
2022/04/19 00:33:08;;;;;;;7.25;5.65;;;6.60;99.90;;;;;;5041136;28;20064;-53
2022/04/19 00:35:34;;;;;;;11.13;6.07;;;6.40;96.30;;;;;;5024171;28;20044;-52
2022/04/19 00:38:00;;;;;;;19.40;10.70;;;6.40;96.00;;;;;;5028694;28;20036;-52
2022/04/19 00:40:26;;;;;;;11.63;7.10;;;6.40;96.20;;;;;;5023847;28;20022;-53
2022/04/19 00:42:54;;;;;;;12.07;7.88;;;6.40;96.10;;;;;;5022647;28;20038;-55
2022/04/19 00:45:22;;;;;;;15.45;8.05;;;6.40;96.20;;;;;;5024781;28;20035;-54
2022/04/19 00:47:48;;;;;;;15.00;8.20;;;6.40;96.20;;;;;;5028974;28;20045;-52
2022/04/19 00:50:15;;;;;;;14.60;7.32;;;6.40;96.20;;;;;;5019985;28;20068;-54
2022/04/19 00:52:43;;;;;;;8.02;6.25;;;6.40;96.10;;;;;;5037034;28;20046;-53
2022/04/19 00:55:10;;;;;;;9.77;6.80;;;6.40;96.10;;;;;;5027303;28;20036;-55
2022/04/19 00:57:40;;;;;;;11.77;6.72;;;6.40;96.00;;;;;;5021504;28;20040;-51
2022/04/19 01:00:09;;;;;;;11.20;6.35;;;6.40;96.00;;;;;;5019512;28;20112;-56
2022/04/19 01:02:36;;;;;;;9.40;6.10;;;6.50;95.90;;;;;;5038984;28;20038;-56
2022/04/19 01:05:02;;;;;;;8.98;6.07;;;6.50;96.10;;;;;;5020070;28;20040;-52
2022/04/19 01:07:29;;;;;;;8.60;5.50;;;6.60;96.00;;;;;;5024634;28;20069;-55
2022/04/19 01:09:54;;;;;;;7.38;5.75;;;6.50;95.80;;;;;;5028333;28;20523;-54
2022/04/19 01:15:08;;;;;;;21.60;13.13;;;6.50;96.00;;;;;;5018814;28;20412;-51
2022/04/19 01:17:35;;;;;;;20.02;13.00;;;6.40;96.00;;;;;;5025117;28;20409;-52
2022/04/19 01:20:03;;;;;;;25.17;15.10;;;6.30;96.10;;;;;;5020962;28;20060;-55
2022/04/19 01:22:34;;;;;;;30.25;16.67;;;6.30;96.20;;;;;;5019028;28;20045;-52
2022/04/19 01:25:00;;;;;;;20.25;12.95;;;6.40;96.20;;;;;;5026672;28;20445;-56
2022/04/19 01:27:25;;;;;;;19.50;11.07;;;6.30;96.30;;;;;;5023461;28;20164;-53
2022/04/19 01:29:53;;;;;;;14.00;9.23;;;6.30;96.50;;;;;;5028849;28;20044;-56
2022/04/19 01:32:20;;;;;;;15.57;9.68;;;6.20;96.40;;;;;;5018635;28;20097;-53
2022/04/19 01:34:46;;;;;;;24.63;12.10;;;6.20;96.80;;;;;;5031696;28;20033;-50
2022/04/19 01:37:14;;;;;;;18.40;10.38;;;6.20;96.60;;;;;;5020795;28;20118;-54
2022/04/19 01:42:24;;;;;;;24.75;10.85;;;6.20;96.90;;;;;;5025862;28;20044;-52
2022/04/19 01:44:50;;;;;;;26.55;13.95;;;6.10;96.80;;;;;;5024320;28;20030;-52
2022/04/19 01:47:16;;;;;;;32.03;17.48;;;6.00;96.90;;;;;;5028377;28;20033;-55
2022/04/19 01:49:41;;;;;;;37.17;18.73;;;6.00;96.90;;;;;;5032699;28;20393;-56
2022/04/19 01:52:08;;;;;;;29.40;15.30;;;5.90;97.00;;;;;;5020485;28;20041;-52
2022/04/19 01:54:35;;;;;;;50.65;21.23;;;5.90;97.10;;;;;;5025703;28;20033;-51
2022/04/19 01:57:00;;;;;;;36.17;19.40;;;6.00;97.10;;;;;;5027238;28;20040;-53
2022/04/19 01:59:26;;;;;;;79.57;36.97;;;6.00;97.00;;;;;;5032997;28;20485;-54
2022/04/19 02:01:52;;;;;;;82.28;35.08;;;6.00;97.10;;;;;;5028027;28;20032;-55
2022/04/19 02:04:18;;;;;;;82.72;33.65;;;6.00;97.40;;;;;;5022962;28;20052;-53
2022/04/19 02:06:44;;;;;;;49.75;23.40;;;5.90;97.50;;;;;;5025880;28;20037;-55
2022/04/19 02:09:10;;;;;;;17.77;10.40;;;5.90;97.50;;;;;;5033224;28;20033;-55
2022/04/19 02:11:37;;;;;;;15.52;9.02;;;5.80;97.50;;;;;;5028550;28;20038;-51
2022/04/19 02:14:04;;;;;;;11.93;7.50;;;5.80;97.50;;;;;;5031474;28;20504;-55
2022/04/19 02:16:31;;;;;;;11.88;7.47;;;5.70;97.80;;;;;;5027468;28;20436;-54
2022/04/19 02:18:57;;;;;;;12.10;8.00;;;5.60;97.70;;;;;;5030435;28;20073;-54
2022/04/19 02:21:23;;;;;;;12.35;7.90;;;5.50;98.00;;;;;;5023022;28;20374;-53
2022/04/19 02:23:49;;;;;;;9.55;7.43;;;5.50;98.30;;;;;;5024130;28;20096;-53
2022/04/19 02:26:15;;;;;;;10.27;6.97;;;5.50;98.20;;;;;;5025797;28;20421;-52
2022/04/19 02:28:41;;;;;;;11.57;6.88;;;5.60;98.20;;;;;;5028191;28;20040;-54
2022/04/19 02:31:08;;;;;;;9.52;6.82;;;5.50;98.30;;;;;;5030552;28;20050;-56
2022/04/19 02:33:34;;;;;;;10.90;7.45;;;5.60;98.30;;;;;;5017031;28;20069;-54
2022/04/19 02:36:00;;;;;;;23.95;12.27;;;5.50;98.30;;;;;;5032430;28;20061;-51
2022/04/19 02:38:26;;;;;;;46.35;22.45;;;5.50;98.60;;;;;;5026964;28;20087;-51
2022/04/19 02:40:51;;;;;;;70.78;33.28;;;5.40;98.90;;;;;;5023101;28;20026;-52
2022/04/19 02:43:17;;;;;;;79.70;38.42;;;5.50;98.90;;;;;;5035509;28;20049;-56
2022/04/19 02:45:43;;;;;;;81.53;37.33;;;5.50;99.00;;;;;;5039543;28;20052;-52
2022/04/19 02:48:09;;;;;;;118.65;48.20;;;5.50;99.20;;;;;;5032182;28;20095;-54
2022/04/19 02:50:43;;;;;;;108.05;43.88;;;5.40;99.40;;;;;;5027674;28;20032;-54
2022/04/19 02:53:09;;;;;;;97.43;41.33;;;5.40;99.80;;;;;;5022420;28;20037;-55
2022/04/19 02:55:36;;;;;;;93.38;35.25;;;5.40;99.60;;;;;;5036184;28;20021;-57
2022/04/19 02:58:02;;;;;;;90.90;39.58;;;5.50;99.60;;;;;;5020793;28;20146;-55
2022/04/19 03:00:28;;;;;;;60.22;28.35;;;5.60;99.40;;;;;;5022487;28;20052;-52
2022/04/19 03:02:54;;;;;;;40.28;16.65;;;5.50;99.40;;;;;;5026488;28;20505;-55
2022/04/19 03:05:21;;;;;;;24.85;13.90;;;5.40;99.70;;;;;;5029988;28;20033;-56
2022/04/19 03:07:49;;;;;;;35.47;16.20;;;5.40;99.90;;;;;;5021526;28;20030;-52
2022/04/19 03:10:16;;;;;;;21.88;13.60;;;5.40;99.90;;;;;;5021678;28;20180;-53
2022/04/19 03:12:45;;;;;;;45.15;20.10;;;5.50;99.80;;;;;;5023521;28;20076;-53
2022/04/19 03:15:12;;;;;;;34.38;19.13;;;5.50;99.70;;;;;;5022112;28;20417;-52
2022/04/19 03:17:39;;;;;;;22.08;11.57;;;5.60;99.60;;;;;;5042904;28;20052;-53
2022/04/19 03:20:08;;;;;;;36.97;16.95;;;5.60;99.60;;;;;;5021164;28;20104;-53
2022/04/19 03:28:06;;;;;;;108.60;44.97;;;5.60;99.70;;;;;;5020573;28;20041;-54
2022/04/19 03:30:32;;;;;;;209.65;84.65;;;5.60;99.90;;;;;;5015510;28;20037;-53
2022/04/19 03:32:59;;;;;;;263.35;101.60;;;5.60;99.70;;;;;;5021988;28;20081;-55
2022/04/19 03:35:25;;;;;;;243.82;97.85;;;5.70;99.70;;;;;;5017148;28;20057;-51
2022/04/19 03:37:51;;;;;;;225.05;88.15;;;5.70;99.60;;;;;;5017188;28;20026;-55
2022/04/19 03:40:17;;;;;;;138.48;56.75;;;5.70;99.90;;;;;;5016424;28;20034;-54
2022/04/19 03:42:43;;;;;;;107.50;46.60;;;5.80;99.60;;;;;;5016556;28;20033;-55
2022/04/19 03:45:10;;;;;;;85.63;38.20;;;5.80;99.70;;;;;;5016436;28;20087;-53
2022/04/19 03:47:36;;;;;;;85.13;39.35;;;5.80;99.60;;;;;;5017185;28;20038;-57
2022/04/19 03:50:02;;;;;;;61.80;29.48;;;5.80;99.70;;;;;;5032893;28;20041;-56
2022/04/19 03:52:28;;;;;;;46.75;22.75;;;5.60;99.80;;;;;;5015308;28;20579;-53
2022/04/19 03:54:53;;;;;;;39.60;20.20;;;5.10;99.90;;;;;;5032121;28;20108;-54
2022/04/19 03:57:19;;;;;;;21.88;13.40;;;4.80;99.90;;;;;;5032581;28;20390;-58
2022/04/19 03:59:45;;;;;;;14.48;10.23;;;;;;;;;;4999254;28;20587;-52
2022/04/19 04:02:11;;;;;;;23.50;9.90;;;;;;;;;;5032521;28;20030;-56
2022/04/19 04:04:37;;;;;;;10.18;7.57;;;3.60;99.90;;;;;;5032090;28;20026;-53
2022/04/19 04:07:04;;;;;;;9.93;7.07;;;;;;;;;;5032872;28;20048;-52
2022/04/19 04:09:35;;;;;;;12.07;7.38;;;3.20;99.90;;;;;;5032280;28;20498;-51
2022/04/19 04:12:05;;;;;;;9.70;7.45;;;;;;;;;;5032368;28;20052;-55
2022/04/19 04:14:31;;;;;;;8.95;6.30;;;3.10;99.90;;;;;;5032163;28;20038;-50
2022/04/19 04:16:56;;;;;;;10.02;6.95;;;3.20;99.90;;;;;;5032179;28;20026;-57
2022/04/19 04:19:23;;;;;;;9.75;7.55;;;3.10;99.90;;;;;;5031805;28;20049;-55
2022/04/19 04:21:48;;;;;;;12.02;7.80;;;3.20;99.90;;;;;;5032804;28;20410;-52
2022/04/19 04:24:14;;;;;;;15.05;8.70;;;3.20;99.90;;;;;;5029845;28;20042;-52
2022/04/19 04:26:40;;;;;;;13.80;9.18;;;3.60;99.90;;;;;;5014914;28;20084;-53
2022/04/19 04:29:06;;;;;;;17.88;10.75;;;;;;;;;;5018265;28;20029;-54
2022/04/19 04:31:33;;;;;;;17.75;10.38;;;;;;;;;;5019981;28;20030;-53
2022/04/19 04:33:59;;;;;;;15.38;9.40;;;;;;;;;;5023494;28;20084;-55
2022/04/19 04:36:25;;;;;;;17.08;9.75;;;;;;;;;;5033894;28;20037;-50
2022/04/19 04:38:52;;;;;;;17.65;10.43;;;;;;;;;;5025459;28;20079;-53
2022/04/19 04:41:17;;;;;;;10.15;8.45;;;5.40;99.90;;;;;;5025308;28;20343;-54
2022/04/19 04:43:43;;;;;;;13.30;7.20;;;5.20;99.90;;;;;;5030476;28;20159;-53
2022/04/19 04:51:39;;;;;;;6.70;6.00;;;4.30;99.90;;;;;;5032181;28;20417;-51
2022/04/19 04:54:05;;;;;;;8.07;5.75;;;4.20;99.90;;;;;;5033264;28;20033;-53
2022/04/19 04:56:30;;;;;;;8.60;6.38;;;4.10;99.90;;;;;;5033502;28;20021;-55
2022/04/19 04:58:56;;;;;;;9.55;7.40;;;4.10;99.90;;;;;;5032988;28;20021;-50
2022/04/19 05:01:22;;;;;;;8.98;6.47;;;4.20;99.90;;;;;;5033533;28;20017;-48
2022/04/19 05:03:48;;;;;;;11.02;7.10;;;4.40;99.90;;;;;;5024724;28;20033;-50
2022/04/19 05:06:14;;;;;;;11.15;7.93;;;4.60;99.90;;;;;;5030790;28;20040;-50
2022/04/19 05:08:39;;;;;;;11.55;7.35;;;4.80;99.90;;;;;;5038030;28;20032;-49
2022/04/19 05:11:05;;;;;;;11.00;7.13;;;4.90;99.90;;;;;;5037370;28;20075;-51
2022/04/19 05:13:31;;;;;;;10.30;7.53;;;5.00;99.90;;;;;;5037957;28;20032;-50
2022/04/19 05:16:00;;;;;;;11.73;7.53;;;5.10;99.90;;;;;;5037991;28;20036;-50
2022/04/19 05:18:26;;;;;;;10.63;7.22;;;;;;;;;;5037748;28;20099;-50
2022/04/19 05:20:52;;;;;;;12.60;7.28;;;;;;;;;;5037686;28;20441;-49
2022/04/19 05:23:19;;;;;;;13.15;8.18;;;;;;;;;;5037627;28;20028;-50
2022/04/19 05:25:45;;;;;;;13.10;8.43;;;5.80;99.90;;;;;;5037726;28;20068;-50
2022/04/19 05:28:11;;;;;;;13.20;8.10;;;;;;;;;;5035671;28;20065;-49
2022/04/19 05:30:37;;;;;;;13.70;8.18;;;;;;;;;;5037850;28;20021;-49
2022/04/19 05:33:03;;;;;;;13.13;8.07;;;7.00;99.90;;;;;;5037509;28;20033;-50
2022/04/19 05:35:29;;;;;;;14.00;7.78;;;;;;;;;;5037368;28;20049;-49
2022/04/19 05:37:55;;;;;;;7.10;5.40;;;;;;;;;;5037369;28;20037;-49
2022/04/19 05:40:22;;;;;;;11.75;7.55;;;;;;;;;;5037232;28;20021;-51
2022/04/19 05:42:49;;;;;;;13.18;8.05;;;;;;;;;;5037235;28;20400;-50
2022/04/19 05:45:14;;;;;;;14.15;8.27;;;9.00;99.90;;;;;;5037010;28;20029;-50
2022/04/19 05:47:40;;;;;;;15.07;8.25;;;8.90;99.90;;;;;;5037320;28;20115;-49
2022/04/19 05:50:07;;;;;;;10.95;5.97;;;9.30;99.90;;;;;;5037201;28;20053;-50
2022/04/19 05:52:32;;;;;;;8.43;5.55;;;9.50;99.90;;;;;;5023217;28;20053;-50
2022/04/19 05:54:58;;;;;;;12.15;6.72;;;9.60;99.90;;;;;;5031589;28;20042;-51
2022/04/19 05:57:24;;;;;;;11.48;6.30;;;;;;;;;;5017062;28;20022;-49
2022/04/19 05:59:50;;;;;;;11.60;6.57;;;;;;;;;;5017015;28;20057;-50
2022/04/19 06:05:01;;;;;;;8.65;6.75;;;;;;;;;;5016757;28;20121;-50
2022/04/19 06:07:29;;;;;;;14.02;7.30;;;;;;;;;;5030986;28;20125;-51
2022/04/19 06:09:56;;;;;;;9.57;6.65;;;10.60;99.90;;;;;;5016643;28;20034;-50
2022/04/19 06:12:22;;;;;;;10.55;6.75;;;10.50;99.90;;;;;;5031145;28;20033;-50
2022/04/19 06:14:48;;;;;;;12.48;7.80;;;10.60;99.90;;;;;;5031347;28;20037;-50
2022/04/19 06:17:16;;;;;;;14.57;8.00;;;10.60;99.90;;;;;;5036196;28;20021;-51
2022/04/19 06:19:42;;;;;;;10.60;7.85;;;10.30;99.90;;;;;;5035025;28;20041;-49
2022/04/19 06:22:08;;;;;;;13.23;9.05;;;10.40;99.90;;;;;;5036103;28;20083;-50
2022/04/19 06:24:34;;;;;;;14.55;10.23;;;;;;;;;;5035979;28;20036;-50
2022/04/19 06:27:01;;;;;;;20.40;9.40;;;;;;;;;;5036097;28;20028;-52
2022/04/19 06:29:26;;;;;;;13.30;9.02;;;10.40;99.90;;;;;;5029932;28;20056;-49
2022/04/19 06:31:52;;;;;;;12.82;8.88;;;10.50;99.90;;;;;;5034157;28;20481;-50
2022/04/19 06:34:18;;;;;;;9.55;7.90;;;10.20;99.90;;;;;;5032746;28;20041;-49
2022/04/19 06:36:44;;;;;;;9.55;7.80;;;10.10;99.90;;;;;;5035215;28;20040;-51
2022/04/19 06:39:10;;;;;;;10.15;6.65;;;10.60;99.90;;;;;;5034672;28;20025;-51
2022/04/19 06:41:37;;;;;;;9.60;7.40;;;10.40;99.90;;;;;;5031181;28;20068;-51
2022/04/19 06:44:04;;;;;;;12.40;6.90;;;10.40;99.90;;;;;;5035867;28;20048;-51
2022/04/19 06:46:30;;;;;;;13.77;8.32;;;10.60;99.90;;;;;;5034807;28;20040;-53
2022/04/19 06:48:58;;;;;;;16.25;9.13;;;11.10;99.90;;;;;;5030122;28;20058;-52
2022/04/19 06:51:30;;;;;;;11.07;7.18;;;;;;;;;;5034894;28;20045;-52
2022/04/19 06:53:57;;;;;;;9.63;5.20;;;;;;;;;;5035176;28;20484;-50
2022/04/19 06:56:23;;;;;;;9.48;7.35;;;;;;;;;;5034800;28;20037;-51
2022/04/19 06:58:50;;;;;;;10.27;7.00;;;;;;;;;;5035039;28;20021;-50
2022/04/19 07:01:16;;;;;;;5.95;4.25;;;;;;;;;;5034945;28;20100;-51
2022/04/19 07:03:43;;;;;;;5.93;4.63;;;;;;;;;;5034683;28;20026;-50
2022/04/19 07:06:09;;;;;;;6.28;4.65;;;;;;;;;;5031055;28;20049;-52
2022/04/19 07:08:35;;;;;;;7.95;4.75;;;;;;;;;;5034797;28;20078;-52
2022/04/19 07:11:01;;;;;;;6.13;4.20;;;;;;;;;;5033005;28;20493;-50
2022/04/19 07:13:28;;;;;;;8.35;4.47;;;;;;;;;;5028121;28;20037;-50
2022/04/19 07:15:54;;;;;;;5.20;3.67;;;;;;;;;;5034796;28;20044;-51
2022/04/19 07:18:23;;;;;;;6.65;4.53;;;13.30;99.90;;;;;;5031806;28;20056;-52
2022/04/19 07:29:11;;;;;;;8.63;4.85;;;12.80;93.50;;;;;;5034932;28;20033;-51
2022/04/19 07:31:38;;;;;;;7.38;5.22;;;12.80;93.90;;;;;;5035464;28;20041;-50
2022/04/19 07:34:04;;;;;;;10.35;5.40;;;12.40;93.90;;;;;;5032987;28;20534;-50
2022/04/19 07:36:30;;;;;;;7.95;5.40;;;12.50;94.50;;;;;;5033020;28;20041;-50
2022/04/19 07:38:57;;;;;;;7.78;5.93;;;12.60;94.40;;;;;;5032904;28;20077;-51
2022/04/19 07:41:25;;;;;;;9.23;5.53;;;13.00;92.90;;;;;;5034792;28;20052;-51
2022/04/19 07:43:52;;;;;;;12.25;6.18;;;;;;;;;;5029914;28;20033;-51
2022/04/19 07:46:18;;;;;;;6.30;4.60;;;;;;;;;;5034661;28;20088;-50
2022/04/19 07:48:45;;;;;;;8.27;5.03;;;;;;;;;;5034762;28;20232;-51
2022/04/19 07:51:12;;;;;;;5.47;3.97;;;;;;;;;;5034563;28;20045;-51
2022/04/19 07:53:38;;;;;;;4.65;4.10;;;;;;;;;;5033339;28;20033;-50
2022/04/19 07:56:04;;;;;;;5.40;4.10;;;;;;;;;;5026099;28;20029;-50
2022/04/19 07:58:30;;;;;;;5.88;3.97;;;;;;;;;;5032216;28;20259;-50
2022/04/19 08:00:56;;;;;;;6.78;4.40;;;;;;;;;;5034539;28;20532;-51
2022/04/19 08:03:23;;;;;;;4.95;4.00;;;14.90;97.20;;;;;;5049026;28;20120;-52
2022/04/19 08:05:50;;;;;;;3.83;3.42;;;14.70;96.60;;;;;;5034438;28;20419;-51
2022/04/19 08:08:18;;;;;;;6.40;3.50;;;14.60;96.90;;;;;;5034221;28;20037;-51
2022/04/19 08:10:44;;;;;;;4.45;3.25;;;;;;;;;;5034294;28;20038;-51
2022/04/19 08:13:11;;;;;;;4.47;3.17;;;;;;;;;;5034381;28;20453;-51
2022/04/19 08:15:37;;;;;;;3.22;2.70;;;;;;;;;;5031490;28;20030;-51
2022/04/19 08:18:03;;;;;;;4.18;2.72;;;;;;;;;;5028779;28;20117;-52
2022/04/19 08:20:29;;;;;;;4.40;2.90;;;15.30;85.30;;;;;;5047677;28;20055;-52
2022/04/19 08:22:55;;;;;;;4.90;3.00;;;15.40;86.30;;;;;;5032495;28;20025;-51
2022/04/19 08:25:22;;;;;;;3.38;2.40;;;15.80;85.80;;;;;;5014671;28;20048;-51
2022/04/19 08:27:48;;;;;;;4.07;2.50;;;15.80;80.80;;;;;;5034049;28;20029;-52
2022/04/19 08:30:15;;;;;;;3.20;2.25;;;15.80;81.20;;;;;;5031920;28;20121;-51
2022/04/19 08:32:42;;;;;;;2.90;2.00;;;15.90;79.60;;;;;;5031222;28;20040;-53
2022/04/19 08:35:09;;;;;;;3.83;2.80;;;;;;;;;;5031126;28;20695;-52
2022/04/19 08:37:36;;;;;;;4.30;2.53;;;16.30;77.70;;;;;;5032802;28;20029;-54
2022/04/19 08:40:06;;;;;;;3.58;2.40;;;16.50;78.10;;;;;;5032458;28;20037;-53
2022/04/19 08:42:32;;;;;;;4.00;2.80;;;;;;;;;;5018069;28;20041;-52
2022/04/19 08:45:03;;;;;;;9.32;3.05;;;16.20;75.90;;;;;;5013896;28;20041;-47
2022/04/19 08:47:36;;;;;;;3.15;2.33;;;16.20;76.10;;;;;;5023139;28;20033;-58
2022/04/19 08:50:05;;;;;;;3.28;2.30;;;16.40;76.60;;;;;;5003965;28;20055;-55
2022/04/19 08:52:33;;;;;;;4.65;2.92;;;16.70;75.30;;;;;;5031420;28;20037;-55
2022/04/19 08:57:44;;;;;;;10.38;3.63;;;17.10;77.20;;;;;;5033629;28;20390;-56
2022/04/19 09:00:10;;;;;;;3.70;2.53;;;17.00;75.10;;;;;;5047893;28;20116;-56
2022/04/19 09:02:37;;;;;;;5.97;2.50;;;17.40;75.60;;;;;;5014497;28;20375;-57
2022/04/19 09:05:12;;;;;;;4.93;3.00;;;;;;;;;;5013532;28;20419;-56
2022/04/19 09:07:38;;;;;;;3.88;2.15;;;17.30;71.70;;;;;;5013681;28;20037;-56
2022/04/19 09:10:06;;;;;;;5.15;3.75;;;17.00;71.10;;;;;;5011700;28;20037;-55
2022/04/19 09:12:32;;;;;;;4.03;2.95;;;;;;;;;;5027799;28;20124;-55
2022/04/19 09:15:06;;;;;;;3.65;2.55;;;;;;;;;;5013705;28;20038;-56
2022/04/19 09:17:31;;;;;;;3.47;2.22;;;18.00;72.30;;;;;;5013362;28;20046;-55
2022/04/19 09:20:16;;;;;;;6.57;2.33;;;;;;;;;;5013726;28;20033;-56
2022/04/19 09:22:43;;;;;;;4.78;2.42;;;17.90;73.10;;;;;;5013304;28;20054;-58
2022/04/19 09:25:16;;;;;;;3.05;2.15;;;17.90;71.00;;;;;;5011495;28;20042;-55
2022/04/19 09:27:46;;;;;;;2.53;1.70;;;18.30;72.20;;;;;;5018328;28;20038;-55
2022/04/19 09:30:16;;;;;;;2.97;2.10;;;18.10;71.20;;;;;;5020425;28;20038;-55
2022/04/19 09:32:58;;;;;;;3.80;1.98;;;17.40;68.90;;;;;;5013313;28;20121;-55
2022/04/19 09:35:28;;;;;;;4.40;2.10;;;;;;;;;;5013447;28;20034;-55
2022/04/19 09:37:55;;;;;;;3.13;2.15;;;17.40;76.10;;;;;;5011436;28;20400;-56
2022/04/19 09:40:28;;;;;;;6.60;2.33;;;17.90;92.40;;;;;;5013269;28;20041;-55
2022/04/19 09:42:56;;;;;;;2.70;1.70;;;18.00;70.70;;;;;;5013504;28;20038;-56
2022/04/19 09:45:26;;;;;;;3.88;1.70;;;17.90;69.50;;;;;;5013213;28;20034;-56
2022/04/19 09:47:52;;;;;;;4.53;1.92;;;17.60;67.90;;;;;;5011481;28;20046;-56
2022/04/19 09:50:18;;;;;;;8.90;2.85;;;18.40;70.60;;;;;;5016464;28;20041;-55
2022/04/19 09:52:48;;;;;;;4.05;2.42;;;18.10;69.80;;;;;;5014908;28;20074;-56
2022/04/19 09:55:15;;;;;;;2.13;1.67;;;17.70;69.80;;;;;;5017024;28;20470;-55
2022/04/19 09:57:45;;;;;;;4.63;2.05;;;18.00;70.60;;;;;;5016861;28;20060;-55
2022/04/19 10:00:14;;;;;;;4.30;2.22;;;18.30;69.70;;;;;;5016839;28;20045;-56
2022/04/19 10:08:11;;;;;;;3.50;1.67;;;17.90;69.70;;;;;;5015616;28;20045;-55
2022/04/19 10:10:41;;;;;;;6.47;2.45;;;17.80;68.10;;;;;;5016299;28;20033;-53
2022/04/19 10:13:08;;;;;;;3.63;2.40;;;18.40;68.80;;;;;;5013372;28;20449;-54
2022/04/19 10:15:35;;;;;;;5.43;2.97;;;;;;;;;;5014105;28;20129;-53
2022/04/19 10:18:01;;;;;;;4.18;2.70;;;;;;;;;;5014857;28;20057;-53
2022/04/19 10:20:33;;;;;;;14.15;7.63;;;19.40;92.60;;;;;;5024114;28;20031;-52
2022/04/19 10:23:11;;;;;;;3.67;2.30;;;18.90;92.20;;;;;;5024027;28;20030;-54
2022/04/19 10:25:43;;;;;;;4.82;2.50;;;;;;;;;;5015039;28;20034;-54
2022/04/19 10:28:10;;;;;;;13.70;3.97;;;;;;;;;;5015240;28;20061;-55
2022/04/19 10:30:37;;;;;;;4.15;2.00;;;;;;;;;;5028744;28;20447;-58
2022/04/19 10:33:22;;;;;;;5.82;1.75;;;;;;;;;;5014729;28;20081;-54
2022/04/19 10:36:07;;;;;;;2.35;1.52;;;;;;;;;;5014823;28;20037;-55
2022/04/19 10:38:33;;;;;;;2.30;1.52;;;;;;;;;;5014749;28;20042;-55
2022/04/19 10:40:58;;;;;;;2.50;2.03;;;19.60;68.20;;;;;;5014768;28;20508;-55
2022/04/19 10:43:27;;;;;;;4.78;2.95;;;19.60;66.70;;;;;;5014815;28;20037;-54
2022/04/19 10:45:54;;;;;;;4.88;1.58;;;19.20;67.70;;;;;;5015480;28;20108;-55
2022/04/19 10:48:20;;;;;;;2.90;1.83;;;19.80;66.50;;;;;;5015636;28;20057;-52
2022/04/19 10:50:51;;;;;;;72.05;27.10;;;;;;;;;;5015804;28;20161;-55
2022/04/19 10:53:17;;;;;;;107.40;37.55;;;;;;;;;;5015534;28;20041;-55
2022/04/19 10:56:02;;;;;;;29.73;13.18;;;;;;;;;;5015457;28;20034;-54
2022/04/19 10:58:39;;;;;;;78.88;27.73;;;21.00;66.30;;;;;;5014938;28;20045;-54
2022/04/19 11:01:07;;;;;;;131.43;50.28;;;20.70;68.80;;;;;;5013388;28;20394;-53
2022/04/19 11:03:47;;;;;;;107.75;47.05;;;20.80;65.50;;;;;;5015811;28;20037;-53
2022/04/19 11:06:38;;;;;;;164.38;68.25;;;19.90;64.10;;;;;;5015740;28;20080;-54
2022/04/19 11:09:25;;;;;;;4.70;2.40;;;20.00;65.30;;;;;;5013253;28;20556;-51
2022/04/19 11:12:07;;;;;;;5.32;3.22;;;19.70;65.20;;;;;;5013269;28;20045;-52
2022/04/19 11:14:40;;;;;;;6.83;3.03;;;19.70;66.70;;;;;;5013317;28;20506;-54
2022/04/19 11:17:26;;;;;;;4.78;2.83;;;20.30;68.50;;;;;;5013057;28;20131;-55
2022/04/19 11:19:55;;;;;;;10.50;6.25;;;19.70;67.50;;;;;;5012861;28;20050;-54
2022/04/19 11:22:43;;;;;;;6.47;2.60;;;19.90;67.30;;;;;;5012526;28;20505;-53
2022/04/19 11:25:09;;;;;;;6.40;3.40;;;20.00;66.20;;;;;;5024859;28;20557;-53
2022/04/19 11:27:53;;;;;;;3.63;1.77;;;19.90;67.10;;;;;;5032064;28;20038;-55
2022/04/19 11:30:20;;;;;;;5.38;2.03;;;20.10;66.20;;;;;;5032246;28;20168;-56
2022/04/19 11:32:58;;;;;;;5.38;2.00;;;20.10;67.10;;;;;;5032472;28;20045;-57
2022/04/19 11:35:26;;;;;;;4.50;2.10;;;20.60;67.20;;;;;;5030577;28;20033;-53
2022/04/19 11:37:52;;;;;;;6.53;2.30;;;20.30;63.80;;;;;;5030912;28;20171;-54
2022/04/19 11:48:48;;;;;;;8.73;2.60;;;21.20;65.40;;;;;;5034772;28;20777;-52
2022/04/19 11:51:16;;;;;;;2.05;1.80;;;21.20;64.90;;;;;;5034235;28;20033;-54
2022/04/19 11:53:43;;;;;;;3.45;1.70;;;20.60;63.90;;;;;;5034464;28;20029;-55
2022/04/19 11:56:09;;;;;;;4.63;2.05;;;20.90;64.60;;;;;;5034711;28;20041;-55
2022/04/19 11:58:36;;;;;;;2.63;1.60;;;21.40;65.00;;;;;;5034256;28;20079;-55
2022/04/19 12:01:07;;;;;;;5.82;2.45;;;21.50;64.20;;;;;;5034287;28;20484;-52
2022/04/19 12:03:36;;;;;;;5.10;1.83;;;22.10;64.80;;;;;;5034327;28;20029;-53
2022/04/19 12:06:14;;;;;;;12.75;2.42;;;21.70;63.60;;;;;;5032313;28;20091;-58
2022/04/19 12:08:49;;;;;;;4.32;2.35;;;21.30;63.40;;;;;;5034353;28;20038;-54
2022/04/19 12:11:20;;;;;;;11.32;4.60;;;20.90;61.80;;;;;;5033617;28;20354;-54
2022/04/19 12:13:47;;;;;;;6.60;2.60;;;21.00;65.10;;;;;;5034036;28;20043;-56
2022/04/19 12:16:34;;;;;;;4.45;1.88;;;21.10;65.00;;;;;;5034130;28;20547;-53
2022/04/19 12:19:12;;;;;;;3.95;2.60;;;20.40;64.40;;;;;;5033838;28;20106;-55
2022/04/19 12:21:39;;;;;;;6.90;2.60;;;20.10;68.70;;;;;;5034106;28;20038;-53
2022/04/19 12:24:32;;;;;;;3.83;2.20;;;20.00;65.70;;;;;;5034161;28;20044;-53
2022/04/19 12:27:06;;;;;;;3.03;2.15;;;20.40;65.00;;;;;;5033814;28;20037;-52
2022/04/19 12:29:36;;;;;;;2.50;1.63;;;21.00;64.50;;;;;;5034044;28;20473;-51
2022/04/19 12:32:04;;;;;;;4.35;2.38;;;21.30;63.40;;;;;;5031964;28;20501;-54
2022/04/19 12:34:33;;;;;;;3.42;1.80;;;21.80;65.00;;;;;;5033592;28;20033;-56
2022/04/19 12:37:06;;;;;;;3.20;1.70;;;21.70;63.20;;;;;;5033937;28;20434;-56
2022/04/19 12:39:32;;;;;;;3.00;1.63;;;20.80;63.20;;;;;;5033378;28;20095;-57
2022/04/19 12:42:07;;;;;;;2.15;1.60;;;20.60;61.80;;;;;;5031977;28;20568;-59
2022/04/19 12:44:35;;;;;;;5.72;1.75;;;20.10;61.90;;;;;;5014754;28;20046;-52
2022/04/19 12:47:04;;;;;;;7.18;2.58;;;20.90;62.60;;;;;;5033616;28;20041;-52
2022/04/19 12:49:31;;;;;;;10.85;3.28;;;20.60;63.60;;;;;;5033673;28;20056;-55
2022/04/19 12:52:02;;;;;;;4.18;2.42;;;21.00;63.80;;;;;;5033474;28;20041;-57
2022/04/19 12:54:29;;;;;;;3.50;1.80;;;21.60;64.00;;;;;;5031776;28;20049;-53
2022/04/19 12:57:02;;;;;;;2.42;1.70;;;20.00;61.10;;;;;;5031479;28;20132;-56
2022/04/19 12:59:29;;;;;;;4.13;2.10;;;19.70;62.20;;;;;;5033487;28;20079;-53
2022/04/19 13:01:55;;;;;;;2.15;1.25;;;19.30;63.50;;;;;;5031577;28;20037;-55
2022/04/19 13:04:21;;;;;;;5.90;2.30;;;18.90;62.20;;;;;;5033295;28;20034;-54
2022/04/19 13:12:18;;;;;;;3.22;2.05;;;19.50;61.80;;;;;;5033537;28;20048;-52
2022/04/19 13:14:44;;;;;;;7.97;2.30;;;20.10;63.00;;;;;;5032816;28;20064;-53
2022/04/19 13:17:13;;;;;;;3.00;2.15;;;20.90;62.80;;;;;;5020682;28;20117;-56
2022/04/19 13:19:41;;;;;;;3.35;1.95;;;21.40;90.40;;;;;;4999894;28;20048;-52
2022/04/19 13:22:08;;;;;;;4.30;2.15;;;21.40;80.60;;;;;;5016342;28;20121;-53
2022/04/19 13:24:34;;;;;;;8.15;2.20;;;19.90;61.40;;;;;;5031450;28;20397;-57
2022/04/19 13:27:00;;;;;;;3.80;1.60;;;19.60;62.10;;;;;;5034915;28;20044;-56
2022/04/19 13:29:26;;;;;;;3.65;2.20;;;18.60;62.30;;;;;;5035686;28;20120;-56
2022/04/19 13:31:52;;;;;;;2.38;1.70;;;19.60;64.00;;;;;;5029798;28;20493;-55
2022/04/19 13:34:19;;;;;;;2.80;1.70;;;20.00;61.50;;;;;;5034560;28;20044;-53
2022/04/19 13:36:46;;;;;;;4.00;2.00;;;20.00;61.90;;;;;;5036692;28;20034;-56
2022/04/19 13:39:12;;;;;;;4.38;2.00;;;19.80;61.50;;;;;;5035405;28;20794;-55
2022/04/19 13:41:41;;;;;;;3.22;2.05;;;19.90;63.10;;;;;;5036912;28;20064;-54
2022/04/19 13:44:10;;;;;;;3.40;2.10;;;19.70;63.50;;;;;;5035997;28;20470;-53
2022/04/19 13:46:38;;;;;;;4.10;2.47;;;19.50;63.50;;;;;;5036155;28;20393;-54
2022/04/19 13:49:03;;;;;;;2.53;1.90;;;19.60;64.90;;;;;;5034124;28;20050;-54
2022/04/19 13:51:30;;;;;;;2.70;1.80;;;19.50;63.60;;;;;;5036958;28;20045;-53
2022/04/19 13:53:56;;;;;;;4.25;2.03;;;19.20;63.50;;;;;;5036486;28;20030;-55
2022/04/19 13:56:21;;;;;;;6.03;3.90;;;19.10;63.00;;;;;;5036565;28;20051;-58
2022/04/19 13:58:47;;;;;;;3.85;2.42;;;19.10;63.70;;;;;;5036483;28;20532;-55